createdAt,value
2023-02-14T00:00:30.081Z,100556.00
2023-02-14T00:03:18.530Z,100552.00
2023-02-14T00:06:13.724Z,100539.00
2023-02-14T00:09:06.291Z,100546.00
2023-02-14T00:11:54.047Z,100544.00
2023-02-14T00:15:00.539Z,100534.00
2023-02-14T00:17:49.575Z,100538.00
2023-02-14T00:20:37.169Z,100546.00
2023-02-14T00:23:24.944Z,100554.00
2023-02-14T00:26:16.662Z,100560.00
2023-02-14T00:29:06.060Z,100562.00
2023-02-14T00:31:54.057Z,100559.00
2023-02-14T00:34:42.044Z,100559.00
2023-02-14T00:37:33.733Z,100575.00
2023-02-14T00:40:21.883Z,100571.00
2023-02-14T00:43:09.384Z,100579.00
2023-02-14T00:45:57.807Z,100586.00
2023-02-14T00:48:47.178Z,100590.00
2023-02-14T00:51:35.275Z,100595.00
2023-02-14T00:54:22.824Z,100600.00
2023-02-14T00:57:10.723Z,100603.00
2023-02-14T00:59:58.254Z,100586.00
2023-02-14T01:02:45.820Z,100582.00
2023-02-14T01:05:33.572Z,100589.00
2023-02-14T01:08:21.910Z,100571.00
2023-02-14T01:11:15.044Z,100565.00
2023-02-14T01:14:03.171Z,100572.00
2023-02-14T01:16:50.914Z,100564.00
2023-02-14T01:19:39.173Z,100572.00
2023-02-14T01:22:27.012Z,100564.00
2023-02-14T01:25:14.933Z,100559.00
2023-02-14T01:28:02.561Z,100572.00
2023-02-14T01:30:52.022Z,100565.00
2023-02-14T01:33:42.221Z,100559.00
2023-02-14T01:36:37.261Z,100559.00
2023-02-14T01:39:25.172Z,100555.00
2023-02-14T01:42:12.852Z,100557.00
2023-02-14T01:45:05.180Z,100555.00
2023-02-14T01:47:56.946Z,100556.00
2023-02-14T01:50:49.566Z,100556.00
2023-02-14T01:53:38.386Z,100554.00
2023-02-14T01:56:36.057Z,100550.00
2023-02-14T01:59:30.609Z,100545.00
2023-02-14T02:02:23.887Z,100546.00
2023-02-14T02:05:12.767Z,100537.00
2023-02-14T02:08:02.139Z,100530.00
2023-02-14T02:10:49.762Z,100533.00
2023-02-14T02:13:37.819Z,100530.00
2023-02-14T02:16:39.986Z,100530.00
2023-02-14T02:19:30.372Z,100527.00
2023-02-14T02:22:54.622Z,100528.00
2023-02-14T02:26:36.500Z,100529.00
2023-02-14T02:30:11.277Z,100526.00
2023-02-14T02:33:29.405Z,100517.00
2023-02-14T02:36:59.658Z,100525.00
2023-02-14T02:40:18.708Z,100520.00
2023-02-14T02:43:51.172Z,100513.00
2023-02-14T02:46:57.103Z,100522.00
2023-02-14T02:50:21.670Z,100523.00
2023-02-14T02:53:24.677Z,100516.00
2023-02-14T02:56:47.829Z,100517.00
2023-02-14T02:59:45.411Z,100529.00
2023-02-14T03:02:59.868Z,100535.00
2023-02-14T03:05:48.595Z,100522.00
2023-02-14T03:08:36.615Z,100524.00
2023-02-14T03:11:26.555Z,100532.00
2023-02-14T03:14:35.667Z,100528.00
2023-02-14T03:18:00.683Z,100523.00
2023-02-14T03:21:13.097Z,100522.00
2023-02-14T03:24:24.538Z,100528.00
2023-02-14T03:27:35.533Z,100510.00
2023-02-14T03:30:55.149Z,100520.00
2023-02-14T03:34:41.499Z,100517.00
2023-02-14T03:38:00.469Z,100509.00
2023-02-14T03:41:06.468Z,100513.00
2023-02-14T03:44:00.992Z,100514.00
2023-02-14T03:47:01.522Z,100514.00
2023-02-14T03:49:59.663Z,100509.00
2023-02-14T03:52:52.135Z,100518.00
2023-02-14T03:56:10.704Z,100521.00
2023-02-14T03:59:06.250Z,100528.00
2023-02-14T04:02:30.075Z,100524.00
2023-02-14T04:05:25.256Z,100512.00
2023-02-14T04:08:21.929Z,100516.00
2023-02-14T04:11:09.560Z,100514.00
2023-02-14T04:13:57.580Z,100510.00
2023-02-14T04:17:04.481Z,100511.00
2023-02-14T04:19:52.701Z,100501.00
2023-02-14T04:22:43.650Z,100499.00
2023-02-14T04:25:31.934Z,100496.00
2023-02-14T04:28:22.455Z,100495.00
2023-02-14T04:31:11.795Z,100502.00
2023-02-14T04:33:59.576Z,100508.00
2023-02-14T04:36:47.505Z,100504.00
2023-02-14T04:39:35.508Z,100506.00
2023-02-14T04:42:23.512Z,100512.00
2023-02-14T04:45:11.259Z,100504.00
2023-02-14T04:47:58.879Z,100496.00
2023-02-14T04:50:51.969Z,100508.00
2023-02-14T04:53:40.691Z,100503.00
2023-02-14T04:56:28.644Z,100503.00
2023-02-14T04:59:17.272Z,100505.00
2023-02-14T05:02:05.173Z,100499.00
2023-02-14T05:04:53.133Z,100500.00
2023-02-14T05:07:42.846Z,100498.00
2023-02-14T05:10:30.611Z,100500.00
2023-02-14T05:13:18.540Z,100494.00
2023-02-14T05:16:06.582Z,100494.00
2023-02-14T05:18:54.555Z,100497.00
2023-02-14T05:21:42.534Z,100494.00
2023-02-14T05:24:30.201Z,100497.00
2023-02-14T05:27:17.972Z,100498.00
2023-02-14T05:30:06.897Z,100501.00
2023-02-14T05:32:55.496Z,100498.00
2023-02-14T05:35:43.489Z,100504.00
2023-02-14T05:38:33.604Z,100498.00
2023-02-14T05:41:21.582Z,100493.00
2023-02-14T05:44:09.192Z,100491.00
2023-02-14T05:46:56.841Z,100487.00
2023-02-14T05:49:44.468Z,100487.00
2023-02-14T05:52:32.395Z,100493.00
2023-02-14T05:55:20.457Z,100498.00
2023-02-14T05:58:08.619Z,100500.00
2023-02-14T06:00:58.945Z,100498.00
2023-02-14T06:03:47.125Z,100509.00
2023-02-14T06:06:36.589Z,100509.00
2023-02-14T06:09:24.856Z,100503.00
2023-02-14T06:12:12.836Z,100503.00
2023-02-14T06:15:00.385Z,100506.00
2023-02-14T06:17:56.228Z,100498.00
2023-02-14T06:20:43.953Z,100501.00
2023-02-14T06:23:31.659Z,100510.00
2023-02-14T06:26:19.364Z,100511.00
2023-02-14T06:29:06.903Z,100514.00
2023-02-14T06:31:54.914Z,100511.00
2023-02-14T06:34:43.042Z,100516.00
2023-02-14T06:37:30.924Z,100514.00
2023-02-14T06:40:19.990Z,100524.00
2023-02-14T06:43:07.933Z,100521.00
2023-02-14T06:45:55.462Z,100519.00
2023-02-14T06:48:43.418Z,100517.00
2023-02-14T06:51:31.021Z,100511.00
2023-02-14T06:54:18.701Z,100509.00
2023-02-14T06:57:06.231Z,100511.00
2023-02-14T06:59:54.383Z,100519.00
2023-02-14T07:02:42.442Z,100516.00
2023-02-14T07:05:30.400Z,100511.00
2023-02-14T07:08:19.024Z,100510.00
2023-02-14T07:11:06.688Z,100506.00
2023-02-14T07:13:54.627Z,100513.00
2023-02-14T07:16:42.378Z,100513.00
2023-02-14T07:19:33.500Z,100513.00
2023-02-14T07:22:21.011Z,100518.00
2023-02-14T07:25:09.589Z,100514.00
2023-02-14T07:27:57.511Z,100510.00
2023-02-14T07:30:45.160Z,100503.00
2023-02-14T07:33:32.867Z,100501.00
2023-02-14T07:36:20.597Z,100501.00
2023-02-14T07:39:08.536Z,100504.00
2023-02-14T07:41:56.376Z,100500.00
2023-02-14T07:44:45.890Z,100506.00
2023-02-14T07:47:33.632Z,100499.00
2023-02-14T07:50:23.600Z,100503.00
2023-02-14T07:53:11.576Z,100498.00
2023-02-14T07:55:59.425Z,100493.00
2023-02-14T07:58:47.821Z,100493.00
2023-02-14T08:01:35.557Z,100502.00
2023-02-14T08:04:26.695Z,100488.00
2023-02-14T08:07:14.701Z,100494.00
2023-02-14T08:10:02.341Z,100500.00
2023-02-14T08:12:59.335Z,100490.00
2023-02-14T08:16:06.118Z,100497.00
2023-02-14T08:18:54.139Z,100494.00
2023-02-14T08:21:42.128Z,100494.00
2023-02-14T08:24:30.855Z,100493.00
2023-02-14T08:27:18.453Z,100498.00
2023-02-14T08:30:07.577Z,100505.00
2023-02-14T08:32:55.222Z,100501.00
2023-02-14T08:35:43.262Z,100495.00
2023-02-14T08:38:31.197Z,100492.00
2023-02-14T08:41:19.753Z,100498.00
2023-02-14T08:44:07.492Z,100499.00
2023-02-14T08:46:55.158Z,100499.00
2023-02-14T08:49:42.812Z,100499.00
2023-02-14T08:52:30.608Z,100498.00
2023-02-14T08:55:18.530Z,100498.00
2023-02-14T08:58:08.207Z,100501.00
2023-02-14T09:00:56.191Z,100508.00
2023-02-14T09:03:45.523Z,100499.00
2023-02-14T09:06:33.774Z,100506.00
2023-02-14T09:09:21.464Z,100502.00
2023-02-14T09:12:11.084Z,100508.00
2023-02-14T09:14:59.070Z,100500.00
2023-02-14T09:17:48.295Z,100496.00
2023-02-14T09:20:36.285Z,100494.00
2023-02-14T09:23:24.294Z,100496.00
2023-02-14T09:26:16.770Z,100498.00
2023-02-14T09:29:04.790Z,100498.00
2023-02-14T09:31:58.611Z,100487.00
2023-02-14T09:35:05.440Z,100488.00
2023-02-14T09:38:12.291Z,100490.00
2023-02-14T09:41:06.941Z,100493.00
2023-02-14T09:44:24.365Z,100494.00
2023-02-14T09:47:30.067Z,100494.00
2023-02-14T09:50:48.861Z,100497.00
2023-02-14T09:53:51.354Z,100503.00
2023-02-14T09:56:51.815Z,100503.00
2023-02-14T10:00:21.576Z,100499.00
2023-02-14T10:03:41.234Z,100501.00
2023-02-14T10:07:10.560Z,100502.00
2023-02-14T10:10:23.900Z,100499.00
2023-02-14T10:13:40.624Z,100494.00
2023-02-14T10:17:02.381Z,100485.00
2023-02-14T10:20:00.784Z,100487.00
2023-02-14T10:23:05.412Z,100479.00
2023-02-14T10:26:17.694Z,100479.00
2023-02-14T10:29:17.887Z,100491.00
2023-02-14T10:32:20.030Z,100489.00
2023-02-14T10:35:31.970Z,100492.00
2023-02-14T10:38:48.156Z,100493.00
2023-02-14T10:42:02.699Z,100490.00
2023-02-14T10:45:28.371Z,100482.00
2023-02-14T10:48:48.163Z,100472.00
2023-02-14T10:52:08.284Z,100473.00
2023-02-14T10:55:13.889Z,100467.00
2023-02-14T10:58:07.501Z,100458.00
2023-02-14T11:01:15.317Z,100452.00
2023-02-14T11:04:08.838Z,100458.00
2023-02-14T11:06:56.769Z,100454.00
2023-02-14T11:09:44.820Z,100447.00
2023-02-14T11:12:42.414Z,100454.00
2023-02-14T11:15:39.800Z,100444.00
2023-02-14T11:18:33.254Z,100446.00
2023-02-14T11:21:29.735Z,100440.00
2023-02-14T11:24:31.327Z,100433.00
2023-02-14T11:27:21.340Z,100439.00
2023-02-14T11:30:42.695Z,100427.00
2023-02-14T11:33:44.295Z,100413.00
2023-02-14T11:36:41.421Z,100425.00
2023-02-14T11:39:35.388Z,100413.00
2023-02-14T11:42:43.019Z,100422.00
2023-02-14T11:45:40.613Z,100420.00
2023-02-14T11:48:38.309Z,100426.00
2023-02-14T11:51:36.462Z,100424.00
2023-02-14T11:54:36.301Z,100419.00
2023-02-14T11:57:38.057Z,100415.00
2023-02-14T12:00:31.498Z,100427.00
2023-02-14T12:03:20.385Z,100412.00
2023-02-14T12:06:08.136Z,100412.00
2023-02-14T12:09:25.422Z,100406.00
2023-02-14T12:12:26.379Z,100402.00
2023-02-14T12:15:36.664Z,100401.00
2023-02-14T12:18:39.142Z,100392.00
2023-02-14T12:22:11.332Z,100401.00
2023-02-14T12:25:15.967Z,100381.00
2023-02-14T12:28:26.390Z,100386.00
2023-02-14T12:31:15.423Z,100375.00
2023-02-14T12:34:05.580Z,100368.00
2023-02-14T12:37:27.976Z,100374.00
2023-02-14T12:41:08.801Z,100366.00
2023-02-14T12:44:07.157Z,100368.00
2023-02-14T12:47:52.102Z,100354.00
2023-02-14T12:51:15.559Z,100363.00
2023-02-14T12:54:49.091Z,100359.00
2023-02-14T12:58:01.769Z,100357.00
2023-02-14T13:01:28.521Z,100360.00
2023-02-14T13:05:13.274Z,100354.00
2023-02-14T13:08:22.643Z,100348.00
2023-02-14T13:11:53.151Z,100345.00
2023-02-14T13:15:17.494Z,100341.00
2023-02-14T13:18:44.936Z,100347.00
2023-02-14T13:21:38.125Z,100334.00
2023-02-14T13:24:31.968Z,100336.00
2023-02-14T13:27:27.845Z,100341.00
2023-02-14T13:30:38.852Z,100336.00
2023-02-14T13:34:03.415Z,100323.00
2023-02-14T13:36:52.037Z,100318.00
2023-02-14T13:39:54.699Z,100332.00
2023-02-14T13:42:48.293Z,100324.00
2023-02-14T13:45:36.262Z,100335.00
2023-02-14T13:48:29.640Z,100326.00
2023-02-14T13:51:17.288Z,100326.00
2023-02-14T13:54:45.337Z,100322.00
2023-02-14T13:57:36.800Z,100332.00
2023-02-14T14:00:50.017Z,100321.00
2023-02-14T14:03:43.236Z,100336.00
2023-02-14T14:07:02.937Z,100324.00
2023-02-14T14:09:50.415Z,100326.00
2023-02-14T14:12:39.582Z,100319.00
2023-02-14T14:15:27.819Z,100335.00
2023-02-14T14:18:15.272Z,100326.00
2023-02-14T14:21:45.308Z,100332.00
2023-02-14T14:24:39.659Z,100332.00
2023-02-14T14:27:36.159Z,100330.00
2023-02-14T14:30:31.231Z,100320.00
2023-02-14T14:33:33.683Z,100326.00
2023-02-14T14:36:25.093Z,100322.00
2023-02-14T14:39:12.701Z,100322.00
2023-02-14T14:42:15.487Z,100319.00
2023-02-14T14:45:19.165Z,100313.00
2023-02-14T14:48:19.025Z,100316.00
2023-02-14T14:51:15.986Z,100311.00
2023-02-14T14:54:20.215Z,100316.00
2023-02-14T14:57:07.915Z,100304.00
2023-02-14T15:00:19.036Z,100310.00
2023-02-14T15:03:18.358Z,100309.00
2023-02-14T15:06:22.229Z,100313.00
2023-02-14T15:09:33.908Z,100308.00
2023-02-14T15:12:43.749Z,100308.00
2023-02-14T15:15:31.666Z,100304.00
2023-02-14T15:18:21.785Z,100306.00
2023-02-14T15:21:09.606Z,100295.00
2023-02-14T15:23:58.549Z,100309.00
2023-02-14T15:26:50.606Z,100308.00
2023-02-14T15:29:39.496Z,100305.00
2023-02-14T15:32:32.812Z,100302.00
2023-02-14T15:35:28.786Z,100310.00
2023-02-14T15:38:18.456Z,100308.00
2023-02-14T15:41:06.954Z,100305.00
2023-02-14T15:43:57.678Z,100304.00
2023-02-14T15:46:46.108Z,100311.00
2023-02-14T15:49:41.572Z,100308.00
2023-02-14T15:52:29.283Z,100304.00
2023-02-14T15:55:22.966Z,100315.00
2023-02-14T15:58:22.655Z,100311.00
2023-02-14T16:01:10.542Z,100301.00
2023-02-14T16:04:03.996Z,100304.00
2023-02-14T16:07:29.286Z,100301.00
2023-02-14T16:10:23.196Z,100303.00
2023-02-14T16:13:13.809Z,100305.00
2023-02-14T16:16:11.766Z,100301.00
2023-02-14T16:18:59.460Z,100299.00
2023-02-14T16:21:57.746Z,100309.00
2023-02-14T16:24:45.754Z,100294.00
2023-02-14T16:27:33.485Z,100298.00
2023-02-14T16:30:21.587Z,100297.00
2023-02-14T16:33:29.116Z,100298.00
2023-02-14T16:36:26.652Z,100308.00
2023-02-14T16:39:19.084Z,100298.00
2023-02-14T16:42:16.773Z,100297.00
2023-02-14T16:45:05.049Z,100294.00
2023-02-14T16:47:52.953Z,100301.00
2023-02-14T16:50:41.492Z,100314.00
2023-02-14T16:53:29.443Z,100307.00
2023-02-14T16:56:33.085Z,100304.00
2023-02-14T16:59:20.963Z,100314.00
2023-02-14T17:02:08.769Z,100310.00
2023-02-14T17:04:56.785Z,100309.00
2023-02-14T17:07:44.591Z,100308.00
2023-02-14T17:10:34.326Z,100311.00
2023-02-14T17:13:27.481Z,100307.00
2023-02-14T17:16:17.470Z,100296.00
2023-02-14T17:19:05.816Z,100298.00
2023-02-14T17:21:53.741Z,100295.00
2023-02-14T17:24:42.064Z,100302.00
2023-02-14T17:27:29.611Z,100307.00
2023-02-14T17:30:18.223Z,100307.00
2023-02-14T17:33:06.345Z,100310.00
2023-02-14T17:35:53.915Z,100304.00
2023-02-14T17:38:45.688Z,100319.00
2023-02-14T17:41:34.296Z,100319.00
2023-02-14T17:44:22.528Z,100308.00
2023-02-14T17:47:10.201Z,100316.00
2023-02-14T17:49:58.532Z,100315.00
2023-02-14T17:52:46.241Z,100308.00
2023-02-14T17:55:37.148Z,100305.00
2023-02-14T17:58:24.801Z,100307.00
2023-02-14T18:01:12.956Z,100303.00
2023-02-14T18:04:02.084Z,100310.00
2023-02-14T18:06:49.730Z,100305.00
2023-02-14T18:09:37.745Z,100304.00
2023-02-14T18:12:25.766Z,100302.00
2023-02-14T18:15:13.450Z,100303.00
2023-02-14T18:18:01.204Z,100299.00
2023-02-14T18:21:00.713Z,100298.00
2023-02-14T18:23:48.872Z,100299.00
2023-02-14T18:26:38.884Z,100301.00
2023-02-14T18:29:26.471Z,100297.00
2023-02-14T18:32:14.556Z,100305.00
2023-02-14T18:35:02.205Z,100302.00
2023-02-14T18:37:50.210Z,100303.00
2023-02-14T18:40:38.241Z,100297.00
2023-02-14T18:43:26.027Z,100298.00
2023-02-14T18:46:20.905Z,100296.00
2023-02-14T18:49:09.632Z,100300.00
2023-02-14T18:51:59.004Z,100290.00
2023-02-14T18:54:46.657Z,100290.00
2023-02-14T18:57:35.539Z,100287.00
2023-02-14T19:00:26.063Z,100286.00
2023-02-14T19:03:13.715Z,100284.00
2023-02-14T19:06:02.002Z,100284.00
2023-02-14T19:08:50.032Z,100288.00
2023-02-14T19:11:38.354Z,100291.00
2023-02-14T19:14:26.100Z,100284.00
2023-02-14T19:17:14.079Z,100279.00
2023-02-14T19:20:02.084Z,100282.00
2023-02-14T19:22:50.588Z,100275.00
2023-02-14T19:25:38.704Z,100279.00
2023-02-14T19:28:26.458Z,100269.00
2023-02-14T19:31:15.402Z,100268.00
2023-02-14T19:34:05.150Z,100268.00
2023-02-14T19:36:53.896Z,100267.00
2023-02-14T19:39:41.936Z,100269.00
2023-02-14T19:42:29.757Z,100270.00
2023-02-14T19:45:17.596Z,100266.00
2023-02-14T19:48:05.281Z,100261.00
2023-02-14T19:50:54.400Z,100262.00
2023-02-14T19:53:42.635Z,100261.00
2023-02-14T19:56:37.914Z,100252.00
2023-02-14T19:59:25.739Z,100243.00
2023-02-14T20:02:20.063Z,100249.00
2023-02-14T20:05:09.601Z,100252.00
2023-02-14T20:07:57.226Z,100249.00
2023-02-14T20:10:45.652Z,100254.00
2023-02-14T20:13:33.240Z,100247.00
2023-02-14T20:16:22.059Z,100248.00
2023-02-14T20:19:17.014Z,100242.00
2023-02-14T20:22:05.269Z,100241.00
2023-02-14T20:24:53.172Z,100251.00
2023-02-14T20:27:40.932Z,100258.00
2023-02-14T20:30:29.194Z,100253.00
2023-02-14T20:33:17.256Z,100251.00
2023-02-14T20:36:06.523Z,100243.00
2023-02-14T20:38:59.914Z,100243.00
2023-02-14T20:41:50.253Z,100236.00
2023-02-14T20:44:37.910Z,100239.00
2023-02-14T20:47:25.900Z,100246.00
2023-02-14T20:50:13.562Z,100242.00
2023-02-14T20:53:02.047Z,100248.00
2023-02-14T20:55:53.478Z,100235.00
2023-02-14T20:58:42.376Z,100236.00
2023-02-14T21:01:30.936Z,100240.00
2023-02-14T21:04:19.024Z,100235.00
2023-02-14T21:07:09.294Z,100228.00
2023-02-14T21:10:00.365Z,100226.00
2023-02-14T21:12:48.935Z,100235.00
2023-02-14T21:15:36.738Z,100227.00
2023-02-14T21:18:24.466Z,100223.00
2023-02-14T21:21:19.808Z,100233.00
2023-02-14T21:24:14.723Z,100227.00
2023-02-14T21:27:02.544Z,100221.00
2023-02-14T21:29:50.284Z,100233.00
2023-02-14T21:32:38.211Z,100225.00
2023-02-14T21:35:26.058Z,100225.00
2023-02-14T21:38:13.672Z,100222.00
2023-02-14T21:41:11.493Z,100229.00
2023-02-14T21:44:04.072Z,100224.00
2023-02-14T21:46:51.609Z,100224.00
2023-02-14T21:49:57.943Z,100217.00
2023-02-14T21:52:45.680Z,100218.00
2023-02-14T21:55:34.577Z,100209.00
2023-02-14T21:58:22.387Z,100224.00
2023-02-14T22:01:27.525Z,100220.00
2023-02-14T22:04:15.506Z,100213.00
2023-02-14T22:07:03.043Z,100215.00
2023-02-14T22:09:50.706Z,100208.00
2023-02-14T22:12:38.532Z,100206.00
2023-02-14T22:15:26.462Z,100207.00
2023-02-14T22:18:14.057Z,100204.00
2023-02-14T22:21:09.988Z,100207.00
2023-02-14T22:23:58.155Z,100210.00
2023-02-14T22:26:45.684Z,100207.00
2023-02-14T22:29:33.260Z,100200.00
2023-02-14T22:32:21.193Z,100214.00
2023-02-14T22:35:09.255Z,100203.00
2023-02-14T22:37:57.581Z,100206.00
2023-02-14T22:40:45.024Z,100213.00
2023-02-14T22:43:32.997Z,100206.00
2023-02-14T22:46:27.068Z,100197.00
2023-02-14T22:49:14.691Z,100201.00
2023-02-14T22:52:02.522Z,100201.00
2023-02-14T22:54:53.561Z,100203.00
2023-02-14T22:57:41.246Z,100203.00
2023-02-14T23:00:28.934Z,100204.00
2023-02-14T23:03:16.623Z,100198.00
2023-02-14T23:06:04.545Z,100198.00
2023-02-14T23:08:53.899Z,100197.00
2023-02-14T23:11:44.725Z,100197.00
2023-02-14T23:14:52.379Z,100199.00
2023-02-14T23:17:59.192Z,100187.00
2023-02-14T23:21:05.745Z,100185.00
2023-02-14T23:23:53.882Z,100181.00
2023-02-14T23:26:41.811Z,100183.00
2023-02-14T23:29:30.607Z,100183.00
2023-02-14T23:32:18.375Z,100182.00
2023-02-14T23:35:09.799Z,100176.00
2023-02-14T23:37:57.276Z,100171.00
2023-02-14T23:41:03.374Z,100164.00
2023-02-14T23:43:50.893Z,100168.00
2023-02-14T23:46:38.503Z,100162.00
2023-02-14T23:49:27.842Z,100161.00
2023-02-14T23:52:15.550Z,100159.00
2023-02-14T23:55:03.079Z,100156.00
2023-02-14T23:57:50.676Z,100152.00
